Time;durP1;ratioP1;P1;durP2;ratioP2;P2;SDS_P1;SDS_P2;PMS_P1;PMS_P2;Temp;Humidity;BMP_temperature;BMP_pressure;BME280_temperature;BME280_humidity;BME280_pressure;Samples;Min_cycle;Max_cycle;Signal;HPM_P1;HPM_P2
2023/09/19 00:03:31;;;;;;;2.72;0.88;;;;;;;19.27;86.91;99556.34;10307604;28;20054;-62
2023/09/19 00:08:33;;;;;;;2.60;0.75;;;;;;;19.30;86.71;99560.53;10308111;28;20058;-63
2023/09/19 00:13:35;;;;;;;2.08;0.80;;;;;;;19.32;86.59;99563.84;10299107;28;20572;-64
2023/09/19 00:18:38;;;;;;;5.43;1.00;;;;;;;19.24;86.32;99562.13;10304906;28;20100;-64
2023/09/19 00:23:42;;;;;;;2.50;0.60;;;;;;;19.32;86.41;99575.50;10308541;28;20304;-64
2023/09/19 00:28:44;;;;;;;2.10;0.90;;;;;;;19.25;86.51;99575.44;10305102;28;20074;-65
2023/09/19 00:33:45;;;;;;;2.35;0.88;;;;;;;19.31;86.71;99576.50;10308056;28;20060;-64
2023/09/19 00:38:47;;;;;;;4.60;0.98;;;;;;;19.23;86.32;99557.75;10312923;28;20449;-64
2023/09/19 00:43:50;;;;;;;2.08;0.98;;;;;;;19.26;86.17;99565.50;10306556;28;20041;-64
2023/09/19 00:48:51;;;;;;;2.33;1.17;;;;;;;19.32;86.52;99575.50;10302436;28;20576;-63
2023/09/19 00:53:53;;;;;;;2.45;0.85;;;;;;;19.26;86.32;99587.06;10307085;28;20054;-65
2023/09/19 00:58:55;;;;;;;3.45;0.68;;;;;;;19.13;86.55;99563.50;10311381;28;20063;-65
2023/09/19 01:03:57;;;;;;;2.58;1.05;;;;;;;19.33;86.09;99606.81;10306425;28;20160;-66
2023/09/19 01:08:58;;;;;;;2.33;0.73;;;;;;;19.31;86.22;99606.19;10319244;28;20054;-64
2023/09/19 01:14:28;;;;;;;3.38;0.80;;;;;;;19.25;86.40;99609.69;10306430;28;20082;-63
2023/09/19 01:20:18;;;;;;;2.97;0.90;;;;;;;19.27;86.17;99614.88;10306103;28;20049;-65
2023/09/19 01:25:56;;;;;;;3.33;1.13;;;;;;;19.22;85.98;99628.94;10178885;28;20051;-64
2023/09/19 01:31:00;;;;;;;1.77;0.82;;;;;;;19.15;85.61;99617.25;10291315;28;20125;-64
2023/09/19 01:36:03;;;;;;;2.83;0.70;;;;;;;19.16;86.11;99645.91;10309060;28;20090;-63
2023/09/19 01:41:12;;;;;;;3.20;1.00;;;;;;;19.05;86.38;99645.41;10344431;28;20045;-64
2023/09/19 01:46:21;;;;;;;3.30;0.93;;;;;;;19.13;86.36;99662.50;10302370;28;20049;-65
2023/09/19 01:51:34;;;;;;;2.83;1.00;;;;;;;19.13;86.44;99659.81;10305793;28;20069;-64
2023/09/19 01:56:54;;;;;;;2.50;1.05;;;;;;;19.12;86.34;99652.72;10300866;28;20560;-64
2023/09/19 02:01:56;;;;;;;1.92;0.80;;;;;;;19.10;86.02;99652.91;10302052;28;20049;-63
2023/09/19 02:06:58;;;;;;;1.58;0.93;;;;;;;19.19;85.63;99672.50;10305915;28;20057;-65
2023/09/19 02:12:00;;;;;;;3.60;1.25;;;;;;;19.20;85.94;99671.47;10351419;28;20778;-64
2023/09/19 02:17:06;;;;;;;2.22;0.93;;;;;;;19.24;85.83;99675.44;10350953;28;20050;-64
2023/09/19 02:22:10;;;;;;;2.70;1.00;;;;;;;19.16;85.96;99686.38;10349003;28;20113;-64
2023/09/19 02:27:14;;;;;;;1.20;0.60;;;;;;;19.12;86.13;99693.19;10351507;28;20157;-64
2023/09/19 02:32:18;;;;;;;2.33;0.80;;;;;;;19.08;85.88;99685.47;10305710;28;20049;-64
2023/09/19 02:37:19;;;;;;;1.20;0.90;;;;;;;19.11;85.52;99689.66;10348555;28;20053;-63
2023/09/19 02:42:21;;;;;;;2.53;0.73;;;;;;;19.12;85.56;99698.59;10347987;28;20052;-64
2023/09/19 02:47:23;;;;;;;1.35;0.82;;;;;;;19.07;84.87;99685.69;10349536;28;20070;-64
2023/09/19 02:52:24;;;;;;;2.47;1.10;;;;;;;19.04;85.09;99686.88;10350032;28;20129;-64
2023/09/19 02:57:27;;;;;;;3.30;0.95;;;;;;;19.06;84.60;99692.91;10345364;28;20042;-63
2023/09/19 03:02:32;;;;;;;1.48;0.73;;;;;;;19.04;84.67;99694.97;10346473;28;20455;-64
2023/09/19 03:07:34;;;;;;;1.80;1.08;;;;;;;19.06;84.48;99695.59;10333062;28;20470;-65
2023/09/19 03:12:40;;;;;;;1.40;0.82;;;;;;;19.04;85.10;99703.06;10344704;28;20065;-63
2023/09/19 03:17:45;;;;;;;2.08;1.38;;;;;;;18.98;85.44;99697.63;10349464;28;20093;-64
2023/09/19 03:22:48;;;;;;;2.63;1.40;;;;;;;18.93;85.32;99710.81;10347806;28;20080;-63
2023/09/19 03:27:49;;;;;;;3.97;1.10;;;;;;;18.84;85.90;99708.22;10348253;28;20593;-63
2023/09/19 03:32:51;;;;;;;4.97;1.05;;;;;;;18.79;85.82;99704.44;10346874;28;20077;-65
2023/09/19 03:37:52;;;;;;;1.33;0.90;;;;;;;18.66;86.03;99703.25;10343824;28;20128;-65
2023/09/19 03:42:54;;;;;;;5.72;1.20;;;;;;;18.67;85.41;99714.88;10336219;28;20750;-63
2023/09/19 03:47:56;;;;;;;2.30;1.55;;;;;;;18.67;85.16;99726.47;10305669;28;20054;-63
2023/09/19 03:52:58;;;;;;;2.33;1.33;;;;;;;18.50;85.22;99716.97;10305295;28;20050;-64
2023/09/19 03:57:59;;;;;;;1.52;1.05;;;;;;;18.55;84.84;99720.78;10313550;28;20070;-64
2023/09/19 04:03:05;;;;;;;2.90;1.40;;;;;;;18.54;84.79;99723.66;10305398;28;20057;-63
2023/09/19 04:08:07;;;;;;;1.40;0.95;;;;;;;18.40;83.99;99724.50;10306217;28;20105;-64
2023/09/19 04:13:09;;;;;;;3.25;1.50;;;;;;;18.38;83.63;99732.78;10305411;28;20085;-64
2023/09/19 04:18:10;;;;;;;3.15;1.60;;;;;;;18.36;83.80;99735.66;10307744;28;20134;-65
2023/09/19 04:23:12;;;;;;;2.17;1.02;;;;;;;18.36;83.42;99742.91;10305967;28;20634;-64
2023/09/19 04:28:15;;;;;;;2.15;1.23;;;;;;;18.37;82.01;99749.94;10304506;28;20065;-64
2023/09/19 04:33:17;;;;;;;2.13;1.13;;;;;;;18.38;80.98;99760.53;10302609;28;20665;-64
2023/09/19 04:38:19;;;;;;;4.38;1.30;;;;;;;18.35;80.33;99760.09;10308206;28;20139;-64
2023/09/19 04:43:20;;;;;;;2.72;0.90;;;;;;;18.37;79.64;99761.56;10307819;28;20049;-65
2023/09/19 04:48:25;;;;;;;2.90;0.88;;;;;;;18.34;77.92;99767.31;10312412;28;20791;-64
2023/09/19 04:53:27;;;;;;;2.25;1.02;;;;;;;18.36;78.34;99767.97;10306471;28;20050;-64
2023/09/19 04:58:29;;;;;;;2.05;0.85;;;;;;;18.43;78.38;99775.31;10308202;28;20100;-65
2023/09/19 05:03:31;;;;;;;2.13;1.38;;;;;;;18.40;77.90;99781.06;10311347;28;20058;-64
2023/09/19 05:08:33;;;;;;;4.28;1.33;;;;;;;18.38;78.11;99779.41;10303810;28;20078;-64
2023/09/19 05:13:34;;;;;;;3.40;1.25;;;;;;;18.34;77.34;99783.47;10305793;28;20128;-63
2023/09/19 05:18:36;;;;;;;1.63;1.02;;;;;;;18.35;77.00;99779.78;10319321;28;20247;-64
2023/09/19 05:23:37;;;;;;;4.00;1.77;;;;;;;18.36;76.95;99792.22;10307561;28;20066;-63
2023/09/19 05:28:39;;;;;;;2.20;1.10;;;;;;;18.30;77.25;99792.97;10305236;28;20046;-63
2023/09/19 05:33:41;;;;;;;3.75;1.23;;;;;;;18.19;78.83;99788.03;10304029;28;20095;-64
2023/09/19 05:38:44;;;;;;;2.13;1.33;;;;;;;18.13;79.28;99794.97;10309733;28;20512;-64
2023/09/19 05:43:45;;;;;;;6.32;1.50;;;;;;;18.11;79.09;99798.91;10310625;28;20057;-64
2023/09/19 05:48:47;;;;;;;8.27;2.40;;;;;;;18.02;79.02;99785.50;10308769;28;20643;-64
2023/09/19 05:53:50;;;;;;;2.92;1.23;;;;;;;18.11;78.39;99798.91;10312536;28;20050;-64
2023/09/19 05:58:52;;;;;;;3.58;1.20;;;;;;;18.14;78.23;99820.06;10311335;28;20141;-63
2023/09/19 06:03:53;;;;;;;3.50;1.23;;;;;;;18.23;78.00;99834.31;10312555;28;20050;-63
2023/09/19 06:08:55;;;;;;;1.55;0.90;;;;;;;18.22;76.45;99817.28;10311493;28;20092;-64
2023/09/19 06:13:56;;;;;;;4.43;1.48;;;;;;;18.27;75.66;99812.19;10310203;28;20053;-65
2023/09/19 06:19:01;;;;;;;4.68;1.13;;;;;;;18.40;75.51;99834.97;10313411;28;20054;-66
2023/09/19 06:24:03;;;;;;;3.13;1.23;;;;;;;18.26;75.87;99840.16;10294858;28;20196;-64
2023/09/19 06:29:07;;;;;;;3.28;1.48;;;;;;;18.29;76.72;99845.16;10327382;28;20104;-64
2023/09/19 06:34:08;;;;;;;3.53;1.23;;;;;;;18.05;77.45;99826.56;10347012;28;20668;-65
2023/09/19 06:39:10;;;;;;;3.30;1.70;;;;;;;18.20;78.21;99848.97;10351644;28;20447;-64
2023/09/19 06:44:12;;;;;;;2.22;1.45;;;;;;;18.11;78.29;99834.75;10351307;28;22284;-64
2023/09/19 06:49:15;;;;;;;4.03;1.45;;;;;;;18.20;77.98;99873.22;10352681;28;20123;-64
2023/09/19 06:54:17;;;;;;;5.22;2.05;;;;;;;18.27;77.64;99873.31;10349786;28;21381;-64
2023/09/19 06:59:19;;;;;;;3.47;1.50;;;;;;;18.24;77.76;99885.31;10348441;28;20211;-64
2023/09/19 07:04:20;;;;;;;4.75;1.45;;;;;;;18.18;76.53;99872.56;10341879;28;20057;-62
2023/09/19 07:09:22;;;;;;;3.28;2.05;;;;;;;18.30;75.29;99894.50;10347045;28;20608;-65
2023/09/19 07:14:23;;;;;;;10.23;1.95;;;;;;;18.20;75.72;99887.50;10346839;28;20054;-65
2023/09/19 07:19:28;;;;;;;3.45;1.23;;;;;;;18.33;74.10;99905.75;10345341;28;20073;-63
2023/09/19 07:24:29;;;;;;;3.05;1.48;;;;;;;18.42;74.14;99916.44;10389684;28;20129;-63
2023/09/19 07:29:30;;;;;;;5.53;1.58;;;;;;;18.47;73.16;99925.66;10382864;28;20056;-63
2023/09/19 07:34:32;;;;;;;3.92;1.13;;;;;;;18.54;72.30;99933.88;10349861;28;20140;-63
2023/09/19 07:39:33;;;;;;;1.98;0.95;;;;;;;18.50;72.09;99948.72;10349180;28;20053;-65
2023/09/19 07:44:36;;;;;;;4.65;1.42;;;;;;;18.52;72.10;99958.28;10348683;28;20053;-65
2023/09/19 07:49:38;;;;;;;2.45;0.93;;;;;;;18.62;71.32;99959.91;10348384;28;20061;-64
2023/09/19 07:54:41;;;;;;;3.28;1.60;;;;;;;18.68;71.66;99964.56;10348320;28;20597;-64
2023/09/19 07:59:43;;;;;;;1.73;0.93;;;;;;;18.56;70.15;99964.16;10344893;28;20045;-64
2023/09/19 08:04:46;;;;;;;5.22;1.17;;;;;;;18.85;71.36;99970.63;10342655;28;20041;-64
2023/09/19 08:09:48;;;;;;;3.10;1.05;;;;;;;18.91;69.28;99967.22;10347177;28;20073;-64
2023/09/19 08:14:50;;;;;;;4.03;1.20;;;;;;;18.93;67.54;99981.38;10340936;28;20416;-64
2023/09/19 08:19:52;;;;;;;2.92;1.25;;;;;;;18.93;66.02;99975.09;10330667;28;20098;-64
2023/09/19 08:24:56;;;;;;;3.17;1.00;;;;;;;18.85;65.74;99963.38;10344820;28;20496;-62
2023/09/19 08:29:57;;;;;;;4.80;1.13;;;;;;;18.83;62.76;99970.81;10348972;28;20704;-65
2023/09/19 08:34:59;;;;;;;2.53;1.38;;;;;;;19.02;64.91;99988.34;10350788;28;20045;-65
2023/09/19 08:40:00;;;;;;;5.30;1.48;;;;;;;19.08;64.01;99995.69;10343836;28;20096;-65
2023/09/19 08:45:03;;;;;;;3.03;1.58;;;;;;;19.13;64.05;99987.03;10347644;28;20057;-64
2023/09/19 08:50:16;;;;;;;4.10;1.20;;;;;;;19.32;63.02;99984.78;10344496;28;20068;-63
2023/09/19 08:55:22;;;;;;;4.33;0.77;;;;;;;19.28;60.89;99984.34;10303615;28;20100;-64
2023/09/19 09:00:27;;;;;;;3.83;1.20;;;;;;;19.34;61.98;99982.75;10303976;28;20057;-63
2023/09/19 09:05:30;;;;;;;2.90;1.20;;;;;;;19.49;60.13;99985.44;10301971;28;20046;-65
2023/09/19 09:10:31;;;;;;;2.85;0.90;;;;;;;19.64;56.80;99997.03;10322508;28;20042;-64
2023/09/19 09:15:36;;;;;;;4.30;1.10;;;;;;;19.80;55.87;100003.28;10304135;28;20135;-65
2023/09/19 09:20:37;;;;;;;4.68;1.23;;;;;;;19.87;57.03;99987.97;10317468;28;20133;-65
2023/09/19 09:25:56;;;;;;;3.65;1.27;;;;;;;20.10;54.95;99998.59;10316684;28;20065;-63
2023/09/19 09:30:59;;;;;;;2.25;1.05;;;;;;;20.14;54.30;99998.03;10318332;28;20659;-64
2023/09/19 09:36:02;;;;;;;2.78;1.20;;;;;;;20.09;53.76;99992.38;10313123;28;20077;-64
2023/09/19 09:51:30;;;;;;;4.70;1.30;;;;;;;20.32;51.23;100007.56;10308927;28;20148;-64
2023/09/19 09:56:34;;;;;;;5.45;1.35;;;;;;;20.34;50.86;100002.78;10310347;28;20130;-63
2023/09/19 10:01:48;;;;;;;3.47;1.10;;;;;;;20.65;50.69;100001.63;10360821;28;20112;-64
2023/09/19 10:06:53;;;;;;;4.55;1.70;;;;;;;21.02;49.05;100010.47;10359790;28;20523;-64
2023/09/19 10:12:05;;;;;;;4.93;1.75;;;;;;;21.23;48.96;99992.44;10377905;28;20065;-64
2023/09/19 10:17:10;;;;;;;5.72;1.40;;;;;;;21.37;47.61;99999.63;10365259;28;20045;-65
2023/09/19 10:22:14;;;;;;;6.30;1.55;;;;;;;21.41;48.86;99989.22;10325467;28;20118;-65
2023/09/19 10:27:17;;;;;;;4.05;1.15;;;;;;;21.46;46.83;99982.16;10315077;28;20041;-63
2023/09/19 10:32:20;;;;;;;2.77;1.47;;;;;;;21.63;46.42;99987.25;10317491;28;20143;-64
2023/09/19 10:37:25;;;;;;;6.25;1.90;;;;;;;21.83;46.51;100001.72;10304981;28;20566;-64
2023/09/19 10:42:29;;;;;;;3.70;1.40;;;;;;;21.91;46.57;99992.56;10311384;28;20061;-63
2023/09/19 10:47:31;;;;;;;4.68;1.38;;;;;;;22.00;46.70;99982.38;10308967;28;20050;-64
2023/09/19 10:52:34;;;;;;;4.80;1.52;;;;;;;22.32;45.57;99977.25;10309319;28;20065;-63
2023/09/19 10:57:36;;;;;;;6.45;1.65;;;;;;;22.43;43.65;99990.19;10310826;28;20045;-64
2023/09/19 11:02:39;;;;;;;3.37;1.47;;;;;;;22.75;42.70;100001.25;10310390;28;20061;-64
2023/09/19 11:07:57;;;;;;;4.57;1.52;;;;;;;22.65;41.67;99989.97;10307930;28;20061;-64
2023/09/19 11:12:59;;;;;;;4.68;1.55;;;;;;;22.65;42.62;99989.97;10309867;28;20108;-64
2023/09/19 11:18:00;;;;;;;5.90;1.70;;;;;;;22.85;41.92;99973.66;10312624;28;20058;-62
2023/09/19 11:23:12;;;;;;;4.22;1.50;;;;;;;23.11;40.97;99973.66;10307537;28;20153;-64
2023/09/19 11:28:18;;;;;;;4.07;1.33;;;;;;;23.01;41.50;99967.78;10306852;28;20245;-65
2023/09/19 11:38:49;;;;;;;3.97;1.20;;;;;;;23.58;40.27;99961.78;10304020;28;20050;-64
2023/09/19 11:44:04;;;;;;;3.83;1.42;;;;;;;23.54;39.24;99960.56;10309892;28;20053;-64
2023/09/19 11:49:17;;;;;;;3.63;1.70;;;;;;;23.91;39.03;99955.38;10349537;28;20048;-65
2023/09/19 11:54:19;;;;;;;4.32;1.35;;;;;;;24.25;36.96;99956.81;10349045;28;20056;-66
2023/09/19 11:59:24;;;;;;;3.40;1.60;;;;;;;24.48;37.91;99956.19;10351953;28;20599;-69
2023/09/19 12:04:38;;;;;;;6.13;2.00;;;;;;;24.86;35.22;99947.09;10339236;28;20049;-64
2023/09/19 12:09:43;;;;;;;5.25;1.40;;;;;;;24.19;37.61;99963.16;10347749;28;20531;-63
2023/09/19 12:14:58;;;;;;;5.65;1.30;;;;;;;23.91;36.59;99958.91;10327905;28;20061;-65
2023/09/19 12:20:00;;;;;;;3.72;1.50;;;;;;;25.28;35.96;99951.88;10346149;28;20045;-63
2023/09/19 12:25:07;;;;;;;4.70;1.33;;;;;;;26.30;35.34;99947.56;10339813;28;20151;-63
2023/09/19 12:30:09;;;;;;;2.78;1.05;;;;;;;26.93;32.08;99937.06;10346927;28;20049;-63
2023/09/19 12:35:34;;;;;;;3.08;1.13;;;;;;;28.06;31.07;99933.88;10346291;28;20096;-62
2023/09/19 12:40:38;;;;;;;5.32;1.42;;;;;;;28.20;30.47;99918.78;10345156;28;20120;-64
2023/09/19 12:45:42;;;;;;;5.28;1.33;;;;;;;28.19;29.79;99916.28;10349490;28;20069;-62
2023/09/19 12:51:05;;;;;;;3.72;1.02;;;;;;;27.38;30.34;99925.47;10346295;28;20054;-63
2023/09/19 12:56:08;;;;;;;4.20;1.10;;;;;;;27.40;30.15;99919.75;10346539;28;20057;-63
2023/09/19 13:01:17;;;;;;;4.55;1.50;;;;;;;27.57;29.77;99897.97;10327416;28;20084;-64
2023/09/19 13:06:38;;;;;;;2.70;0.95;;;;;;;27.79;29.63;99901.66;10342651;28;20167;-63
2023/09/19 13:11:42;;;;;;;5.03;1.60;;;;;;;27.83;29.66;99901.97;10345288;28;20061;-63
2023/09/19 13:17:15;;;;;;;4.03;1.30;;;;;;;27.30;29.29;99914.91;10346641;28;20080;-63
2023/09/19 13:22:59;;;;;;;3.05;1.10;;;;;;;27.56;29.61;99907.22;10304485;28;20125;-64
2023/09/19 13:28:04;;;;;;;4.82;1.17;;;;;;;27.00;30.79;99899.53;10304948;28;20046;-64
2023/09/19 13:33:10;;;;;;;4.35;0.90;;;;;;;26.31;30.05;99894.69;10302720;28;20073;-64
2023/09/19 13:38:12;;;;;;;6.20;1.63;;;;;;;26.03;32.09;99896.19;10303365;28;20114;-64
2023/09/19 13:43:13;;;;;;;4.28;1.10;;;;;;;25.44;32.67;99897.88;10304098;28;20084;-62
2023/09/19 13:48:15;;;;;;;5.47;0.88;;;;;;;24.91;33.30;99889.25;10306430;28;20420;-65
2023/09/19 13:53:17;;;;;;;4.70;1.73;;;;;;;24.81;33.73;99887.06;10306505;28;20046;-63
2023/09/19 13:58:18;;;;;;;3.85;1.13;;;;;;;24.70;35.57;99883.19;10305647;28;20049;-62
2023/09/19 14:03:21;;;;;;;4.38;1.35;;;;;;;24.86;34.75;99876.34;10305351;28;20108;-64
2023/09/19 14:08:23;;;;;;;;;;;;;;;24.99;34.81;99875.34;10311279;28;20183;-63
2023/09/19 14:13:25;;;;;;;2.65;1.20;;;;;;;25.07;35.65;99882.34;10309489;28;20355;-64
2023/09/19 14:18:26;;;;;;;4.30;1.70;;;;;;;24.68;34.08;99874.44;10311688;28;20052;-63
2023/09/19 14:23:28;;;;;;;2.92;1.13;;;;;;;24.48;34.86;99865.63;10309771;28;20576;-63
2023/09/19 14:28:29;;;;;;;3.95;1.42;;;;;;;24.12;35.32;99864.47;10312565;28;20058;-64
2023/09/19 14:33:31;;;;;;;5.30;0.98;;;;;;;23.84;35.82;99852.13;10309453;28;20137;-64
2023/09/19 14:38:33;;;;;;;2.95;0.80;;;;;;;23.76;36.53;99876.84;10312461;28;20046;-63
2023/09/19 14:43:35;;;;;;;2.10;0.83;;;;;;;23.58;35.70;99864.81;10306198;28;20057;-65
2023/09/19 14:48:36;;;;;;;4.18;0.98;;;;;;;23.35;35.92;99848.28;10307026;28;20066;-64
2023/09/19 14:53:38;;;;;;;2.33;0.95;;;;;;;23.09;36.56;99845.47;10309265;28;20607;-63
2023/09/19 14:58:41;;;;;;;3.28;1.20;;;;;;;23.10;36.75;99846.28;10307842;28;20136;-64
2023/09/19 15:03:43;;;;;;;1.80;0.80;;;;;;;22.89;37.56;99855.53;10307353;28;20129;-63
2023/09/19 15:08:50;;;;;;;2.22;0.60;;;;;;;22.95;37.67;99852.81;10309410;28;20101;-62
2023/09/19 15:13:53;;;;;;;2.88;0.73;;;;;;;22.94;37.90;99858.44;10309015;28;20125;-64
2023/09/19 15:18:55;;;;;;;;;;;;;;;22.62;38.22;99838.50;10306869;28;20118;-63
2023/09/19 15:23:57;;;;;;;3.83;0.60;;;;;;;22.55;38.82;99842.06;10307844;28;20105;-63
2023/09/19 15:28:58;;;;;;;3.50;1.05;;;;;;;22.55;38.97;99838.53;10307763;28;20706;-63
2023/09/19 15:34:00;;;;;;;1.50;0.60;;;;;;;22.47;39.44;99826.00;10302725;28;20051;-63
2023/09/19 15:39:11;;;;;;;1.90;0.85;;;;;;;22.49;40.01;99818.50;10308403;28;20762;-62
2023/09/19 15:44:15;;;;;;;2.05;0.80;;;;;;;22.45;40.39;99822.69;10308487;28;20835;-65
2023/09/19 15:49:17;;;;;;;2.40;1.02;;;;;;;22.38;40.93;99820.00;10305712;28;20288;-63
2023/09/19 15:54:18;;;;;;;2.22;0.80;;;;;;;22.38;40.92;99822.72;10333732;28;20064;-63
2023/09/19 15:59:20;;;;;;;2.47;0.60;;;;;;;22.27;41.09;99814.34;10341591;28;20420;-64
2023/09/19 16:04:21;;;;;;;4.45;0.47;;;;;;;22.20;41.09;99809.78;10350642;28;20064;-63
2023/09/19 16:09:23;;;;;;;2.45;1.05;;;;;;;22.20;41.58;99809.78;10347399;28;20108;-64
2023/09/19 16:14:24;;;;;;;3.08;1.05;;;;;;;22.07;41.75;99797.06;10335755;28;20053;-64
2023/09/19 16:19:25;;;;;;;1.77;0.68;;;;;;;22.13;42.33;99805.38;10345269;28;20067;-63
2023/09/19 16:24:27;;;;;;;1.95;0.70;;;;;;;22.10;42.75;99787.69;10345088;28;20141;-69
2023/09/19 16:29:28;;;;;;;3.33;0.60;;;;;;;22.15;42.88;99798.72;10338151;28;20548;-63
2023/09/19 16:34:30;;;;;;;2.45;1.00;;;;;;;22.08;42.80;99792.47;10330066;28;20148;-64
2023/09/19 16:39:31;;;;;;;3.75;0.90;;;;;;;22.09;43.28;99796.84;10346241;28;20123;-63
2023/09/19 16:44:33;;;;;;;2.25;0.60;;;;;;;22.03;43.55;99798.53;10336936;28;20049;-63
2023/09/19 16:49:34;;;;;;;1.52;0.50;;;;;;;21.91;44.15;99778.53;10346054;28;20049;-64
2023/09/19 16:54:35;;;;;;;2.20;0.60;;;;;;;21.96;44.80;99783.31;10344501;28;20441;-65
2023/09/19 16:59:37;;;;;;;2.65;0.82;;;;;;;21.99;44.58;99791.03;10343107;28;20053;-66
2023/09/19 17:04:38;;;;;;;3.30;0.90;;;;;;;21.93;44.94;99791.88;10323778;28;20668;-64
2023/09/19 17:09:40;;;;;;;1.77;0.70;;;;;;;21.82;45.36;99787.91;10335947;28;20105;-65
2023/09/19 17:14:42;;;;;;;2.17;0.75;;;;;;;21.65;45.76;99787.50;10336931;28;20053;-64
2023/09/19 17:19:43;;;;;;;1.60;1.02;;;;;;;21.70;46.24;99798.53;10335562;28;20439;-61
2023/09/19 17:24:45;;;;;;;3.13;0.73;;;;;;;21.70;46.33;99809.38;10342109;28;20634;-62
2023/09/19 17:29:47;;;;;;;1.92;0.70;;;;;;;21.70;46.95;99809.38;10343270;28;20728;-63
2023/09/19 17:34:49;;;;;;;2.08;0.90;;;;;;;21.70;47.18;99809.38;10347290;28;20147;-63
2023/09/19 17:39:51;;;;;;;2.80;1.15;;;;;;;21.57;47.26;99804.75;10351087;28;20060;-64
2023/09/19 17:44:52;;;;;;;1.90;0.95;;;;;;;21.62;47.70;99828.50;10351414;28;20066;-63
2023/09/19 17:49:54;;;;;;;5.13;1.27;;;;;;;21.57;48.08;99817.47;10352363;28;20129;-63
2023/09/19 17:54:55;;;;;;;2.83;0.70;;;;;;;21.61;48.21;99821.44;10332370;28;20511;-63
2023/09/19 17:59:56;;;;;;;3.15;0.90;;;;;;;21.58;48.47;99835.41;10353008;28;20135;-63
2023/09/19 18:04:58;;;;;;;1.73;0.95;;;;;;;21.56;48.67;99829.34;10353385;28;20077;-63
2023/09/19 18:10:00;;;;;;;4.22;1.27;;;;;;;21.51;49.25;99836.22;10349941;28;20429;-62
2023/09/19 18:15:02;;;;;;;2.60;1.00;;;;;;;21.43;49.32;99824.72;10332275;28;20072;-63
2023/09/19 18:20:04;;;;;;;2.85;1.17;;;;;;;21.42;49.57;99833.88;10353855;28;20038;-64
2023/09/19 18:25:06;;;;;;;2.70;1.20;;;;;;;21.44;49.67;99848.03;10349773;28;20095;-63
2023/09/19 18:30:09;;;;;;;3.45;0.98;;;;;;;21.41;50.13;99852.00;10350574;28;20065;-64
2023/09/19 18:35:10;;;;;;;2.75;0.63;;;;;;;21.36;49.71;99849.91;10348428;28;20050;-63
2023/09/19 18:40:13;;;;;;;1.77;0.80;;;;;;;21.29;50.15;99853.63;10350271;28;20049;-65
2023/09/19 18:45:15;;;;;;;2.08;0.90;;;;;;;21.19;50.23;99854.00;10355155;28;20044;-66
2023/09/19 18:50:24;;;;;;;1.98;1.00;;;;;;;21.15;50.40;99864.41;10353381;28;20060;-63
2023/09/19 18:55:25;;;;;;;1.92;0.93;;;;;;;21.15;50.32;99864.41;10350387;28;20131;-64
2023/09/19 19:00:28;;;;;;;4.18;1.50;;;;;;;21.15;50.44;99882.50;10348587;28;20076;-63
2023/09/19 19:05:32;;;;;;;3.33;1.25;;;;;;;21.01;50.88;99854.56;10349432;28;20053;-64
2023/09/19 19:10:38;;;;;;;5.05;1.27;;;;;;;21.08;50.82;99885.19;10348581;28;20127;-63
2023/09/19 19:15:40;;;;;;;1.95;0.90;;;;;;;20.88;51.07;99866.13;10347321;28;20046;-63
2023/09/19 19:20:41;;;;;;;2.50;1.05;;;;;;;20.92;51.06;99872.00;10350547;28;20124;-63
2023/09/19 19:25:47;;;;;;;1.95;1.10;;;;;;;20.88;50.91;99859.91;10350083;28;20050;-64
2023/09/19 19:30:50;;;;;;;2.17;1.38;;;;;;;20.77;51.00;99856.72;10348708;28;20053;-63
2023/09/19 19:35:52;;;;;;;2.90;1.00;;;;;;;20.80;51.42;99875.25;10347143;28;20181;-63
2023/09/19 19:40:59;;;;;;;2.03;1.33;;;;;;;20.76;51.66;99875.84;10345935;28;20093;-64
2023/09/19 19:46:05;;;;;;;4.70;2.47;;;;;;;20.64;51.87;99862.88;10348063;28;20308;-62
2023/09/19 19:51:09;;;;;;;4.20;1.88;;;;;;;20.63;52.01;99872.03;10324406;28;20109;-63
2023/09/19 19:56:11;;;;;;;1.73;1.08;;;;;;;20.60;51.96;99869.72;10346047;28;20104;-64
2023/09/19 20:01:12;;;;;;;2.17;0.85;;;;;;;20.56;52.35;99879.25;10348055;28;20599;-63
2023/09/19 20:06:17;;;;;;;1.70;1.13;;;;;;;20.55;52.45;99871.34;10340673;28;20050;-65
2023/09/19 20:11:19;;;;;;;2.50;0.80;;;;;;;20.36;52.71;99865.59;10334677;28;20119;-63
2023/09/19 20:16:20;;;;;;;1.55;0.90;;;;;;;20.39;52.67;99873.31;10348149;28;20492;-63
2023/09/19 20:21:22;;;;;;;1.90;0.80;;;;;;;20.31;52.97;99871.59;10338169;28;20057;-63
2023/09/19 20:26:23;;;;;;;2.53;1.00;;;;;;;20.25;53.06;99866.13;10345989;28;20049;-62
2023/09/19 20:31:25;;;;;;;1.63;0.77;;;;;;;20.34;53.45;99897.38;10345112;28;20196;-63
2023/09/19 20:36:26;;;;;;;1.65;0.75;;;;;;;19.91;53.62;99851.53;10340235;28;20542;-62
2023/09/19 20:41:28;;;;;;;2.05;0.85;;;;;;;20.28;53.69;99903.56;10355605;28;20419;-63
2023/09/19 20:46:29;;;;;;;2.67;1.10;;;;;;;20.25;53.88;99901.25;10345069;28;20072;-62
2023/09/19 20:51:34;;;;;;;3.65;1.50;;;;;;;20.09;54.30;99889.72;10335618;28;20057;-64
2023/09/19 20:56:37;;;;;;;3.72;1.00;;;;;;;20.06;54.42;99895.50;10344809;28;20426;-63
2023/09/19 21:01:39;;;;;;;0.95;0.70;;;;;;;19.99;54.38;99889.19;10342539;28;20724;-63
2023/09/19 21:06:41;;;;;;;1.65;0.70;;;;;;;20.03;54.70;99885.09;10337758;28;20064;-63
2023/09/19 21:11:42;;;;;;;2.17;0.60;;;;;;;20.06;55.10;99897.38;10347769;28;20693;-63
2023/09/19 21:16:45;;;;;;;2.13;0.47;;;;;;;20.04;55.46;99889.47;10334859;28;20137;-63
2023/09/19 21:21:48;;;;;;;3.37;0.60;;;;;;;20.02;55.42;99888.81;10347333;28;20046;-69
2023/09/19 21:26:52;;;;;;;1.70;0.68;;;;;;;20.00;55.81;99896.28;10343992;28;20564;-63
2023/09/19 21:31:53;;;;;;;2.63;0.80;;;;;;;19.96;55.74;99895.81;10326895;28;20865;-65
2023/09/19 21:36:54;;;;;;;1.17;0.88;;;;;;;19.91;56.09;99894.75;10342478;28;20096;-64
2023/09/19 21:41:56;;;;;;;2.50;0.93;;;;;;;19.91;56.26;99900.97;10328739;28;20481;-63
2023/09/19 21:47:00;;;;;;;1.70;0.60;;;;;;;19.88;56.47;99912.16;10322702;28;20736;-65
2023/09/19 21:52:02;;;;;;;1.63;0.60;;;;;;;19.90;56.44;99902.00;10341142;28;20144;-64
2023/09/19 21:57:03;;;;;;;3.83;1.30;;;;;;;19.85;56.78;99893.66;10345521;28;20062;-64
2023/09/19 22:02:07;;;;;;;1.63;0.73;;;;;;;19.88;57.03;99903.25;10342190;28;20079;-62
2023/09/19 22:07:09;;;;;;;1.83;0.70;;;;;;;19.86;57.06;99899.88;10347560;28;20457;-63
2023/09/19 22:12:12;;;;;;;1.63;0.60;;;;;;;19.74;56.82;99886.88;10305043;28;20046;-63
2023/09/19 22:17:13;;;;;;;3.30;0.93;;;;;;;19.76;57.36;99889.38;10303955;28;20046;-63
2023/09/19 22:22:17;;;;;;;2.72;0.95;;;;;;;19.85;57.39;99900.94;10300070;28;20046;-63
2023/09/19 22:27:20;;;;;;;1.77;0.77;;;;;;;19.70;57.23;99880.19;10315450;28;20728;-63
2023/09/19 22:32:22;;;;;;;2.92;0.90;;;;;;;19.82;57.31;99899.44;10320520;28;20062;-64
2023/09/19 22:37:25;;;;;;;1.48;0.57;;;;;;;19.83;57.44;99900.25;10322875;28;20052;-65
2023/09/19 22:42:29;;;;;;;1.63;0.73;;;;;;;19.78;57.42;99892.75;10315842;28;20131;-63
2023/09/19 22:47:30;;;;;;;0.98;0.52;;;;;;;19.81;57.10;99896.94;10309003;28;20678;-64
2023/09/19 22:52:36;;;;;;;2.03;1.00;;;;;;;19.84;57.50;99901.94;10316315;28;20654;-63
2023/09/19 22:57:38;;;;;;;2.38;0.70;;;;;;;19.69;58.01;99897.41;10307841;28;20520;-64
2023/09/19 23:02:41;;;;;;;1.83;0.73;;;;;;;19.63;58.11;99895.47;10310672;28;20046;-64
2023/09/19 23:07:53;;;;;;;0.98;0.47;;;;;;;19.72;58.27;99913.22;10307375;28;20089;-64
2023/09/19 23:12:56;;;;;;;6.38;0.82;;;;;;;19.72;58.26;99910.50;10310461;28;20046;-63
2023/09/19 23:17:58;;;;;;;1.15;0.60;;;;;;;19.67;58.13;99912.97;10308287;28;20688;-63
2023/09/19 23:23:01;;;;;;;1.77;0.87;;;;;;;19.67;58.29;99912.97;10308499;28;20620;-65
2023/09/19 23:28:04;;;;;;;2.35;0.68;;;;;;;19.57;58.62;99901.63;10303901;28;20856;-63
2023/09/19 23:33:06;;;;;;;1.60;0.55;;;;;;;19.64;58.50;99902.53;10310194;28;20050;-63
2023/09/19 23:38:07;;;;;;;1.13;0.60;;;;;;;19.61;58.51;99903.75;10306356;28;20065;-64
2023/09/19 23:43:13;;;;;;;1.50;0.60;;;;;;;19.63;59.03;99918.94;10308650;28;20192;-65
2023/09/19 23:48:16;;;;;;;2.28;0.80;;;;;;;19.60;58.88;99917.44;10307666;28;20061;-64